Time;durP1;ratioP1;P1;durP2;ratioP2;P2;SDS_P1;SDS_P2;PMS_P1;PMS_P2;Temp;Humidity;BMP_temperature;BMP_pressure;BME280_temperature;BME280_humidity;BME280_pressure;Samples;Min_cycle;Max_cycle;Signal;HPM_P1;HPM_P2
2021/01/10 00:00:33;;;;;;;8.07;4.80;;;;;;;-3.20;100.00;100340.03;1720398;82;21042;-69
2021/01/10 00:03:03;;;;;;;10.93;4.33;;;;;;;-3.24;100.00;100345.91;1744658;82;21023;-71
2021/01/10 00:05:37;;;;;;;9.87;4.83;;;;;;;-3.26;100.00;100343.81;1744493;82;21187;-70
2021/01/10 00:08:06;;;;;;;7.73;4.50;;;;;;;-3.29;100.00;100346.16;1744682;82;21560;-70
2021/01/10 00:10:34;;;;;;;4.97;3.27;;;;;;;-3.31;100.00;100346.70;1744632;82;21043;-70
2021/01/10 00:13:04;;;;;;;9.70;5.50;;;;;;;-3.31;100.00;100348.02;1753625;81;21162;-70
2021/01/10 00:15:32;;;;;;;7.97;4.47;;;;;;;-3.33;100.00;100356.95;1753878;81;21194;-70
2021/01/10 00:18:05;;;;;;;10.50;4.80;;;;;;;-3.36;100.00;100353.16;1753657;81;21372;-70
2021/01/10 00:20:33;;;;;;;10.03;5.23;;;;;;;-3.37;100.00;100364.17;1780364;80;21047;-70
2021/01/10 00:23:03;;;;;;;7.13;3.57;;;;;;;-3.40;100.00;100364.31;1782587;80;21011;-69
2021/01/10 00:25:32;;;;;;;11.53;5.13;;;;;;;-3.42;100.00;100359.57;1782427;79;21047;-70
2021/01/10 00:28:00;;;;;;;5.00;3.80;;;;;;;-3.44;100.00;100360.96;1782525;80;20917;-70
2021/01/10 00:30:28;;;;;;;9.93;5.10;;;;;;;-3.44;100.00;100354.83;1782381;79;21156;-70
2021/01/10 00:32:56;;;;;;;5.73;4.27;;;;;;;-3.47;100.00;100356.29;1797209;79;20951;-69
2021/01/10 00:35:25;;;;;;;6.47;3.90;;;;;;;-3.48;100.00;100351.47;1802352;79;20935;-69
2021/01/10 00:37:55;;;;;;;6.17;4.10;;;;;;;-3.47;100.00;100359.81;1802257;79;20976;-70
2021/01/10 00:40:24;;;;;;;6.33;4.03;;;;;;;-3.45;100.00;100350.48;1802298;79;20979;-71
2021/01/10 00:42:52;;;;;;;4.80;3.57;;;;;;;-3.46;100.00;100352.25;1802267;79;21198;-70
2021/01/10 00:45:21;;;;;;;8.60;4.23;;;;;;;-3.46;100.00;100355.37;1808284;77;21006;-71
2021/01/10 00:47:54;;;;;;;;;;;;;;;-3.45;100.00;100355.77;1837890;78;20983;-69
2021/01/10 00:50:25;;;;;;;3.23;3.00;;;;;;;-3.46;100.00;100358.02;1770007;81;20136;-70
2021/01/10 00:52:54;;;;;;;5.33;4.40;;;;;;;-3.46;100.00;100358.02;1770053;81;20932;-70
2021/01/10 00:55:22;;;;;;;6.63;4.23;;;;;;;-3.46;100.00;100356.70;1769923;81;21148;-71
2021/01/10 00:57:50;;;;;;;5.50;4.20;;;;;;;-3.44;100.00;100353.50;1770107;81;20995;-69
2021/01/10 01:00:21;;;;;;;5.83;3.57;;;;;;;-3.40;100.00;100352.89;1770102;81;20971;-70
2021/01/10 01:02:49;;;;;;;7.00;4.60;;;;;;;-3.38;100.00;100352.34;1746143;81;20969;-70
2021/01/10 01:05:19;;;;;;;6.97;3.60;;;;;;;-3.37;100.00;100340.38;1733472;82;21535;-69
2021/01/10 01:07:48;;;;;;;4.80;4.20;;;;;;;-3.34;100.00;100347.31;1733387;82;21398;-70
2021/01/10 01:10:18;;;;;;;9.40;3.77;;;;;;;-3.34;100.00;100350.81;1733609;82;21550;-69
2021/01/10 01:12:47;;;;;;;5.93;3.33;;;;;;;-3.34;100.00;100347.31;1735670;82;20896;-71
2021/01/10 01:15:15;;;;;;;7.93;4.70;;;;;;;-3.36;100.00;100350.52;1703066;84;21008;-72
2021/01/10 01:17:42;;;;;;;9.33;4.70;;;;;;;-3.34;100.00;100349.96;1697908;84;21041;-71
2021/01/10 01:20:11;;;;;;;3.90;3.00;;;;;;;-3.35;100.00;100350.88;1699447;83;21522;-70
2021/01/10 01:22:40;;;;;;;7.80;5.03;;;;;;;-3.35;100.00;100351.73;1728670;83;21022;-70
2021/01/10 01:25:10;;;;;;;6.07;4.23;;;;;;;-3.34;100.00;100357.89;1711812;83;21618;-70
2021/01/10 01:27:38;;;;;;;6.13;4.00;;;;;;;-3.37;100.00;100354.07;1726788;83;21025;-70
2021/01/10 01:30:07;;;;;;;5.47;3.27;;;;;;;-3.38;100.00;100358.52;1707694;84;21085;-70
2021/01/10 01:32:36;;;;;;;5.57;3.47;;;;;;;-3.41;100.00;100353.84;1714686;83;21387;-71
2021/01/10 01:35:05;;;;;;;9.20;4.23;;;;;;;-3.42;100.00;100346.83;1700227;84;21038;-71
2021/01/10 01:37:35;;;;;;;7.93;3.90;;;;;;;-3.44;100.00;100352.19;1668395;84;21601;-70
2021/01/10 01:40:06;;;;;;;6.87;4.03;;;;;;;-3.47;100.00;100348.36;1714312;83;21582;-70
2021/01/10 01:42:34;;;;;;;5.87;3.93;;;;;;;-3.48;100.00;100348.83;1667913;86;21147;-70
2021/01/10 01:45:06;;;;;;;8.17;4.60;;;;;;;-3.50;100.00;100341.92;1713220;83;21166;-70
2021/01/10 01:47:41;;;;;;;4.20;2.67;;;;;;;-3.48;100.00;100334.29;1845320;76;22703;-70
2021/01/10 01:50:10;;;;;;;5.60;3.53;;;;;;;-3.52;100.00;100335.37;1810255;78;21015;-70
2021/01/10 01:52:40;;;;;;;4.93;2.53;;;;;;;-3.50;100.00;100333.98;1815222;79;21376;-70
2021/01/10 01:55:09;;;;;;;2.53;2.23;;;;;;;-3.50;100.00;100332.67;1815211;77;20992;-71
2021/01/10 01:57:39;;;;;;;2.97;2.63;;;;;;;-3.52;100.00;100327.92;1769261;79;20996;-70
2021/01/10 02:00:09;;;;;;;2.80;2.60;;;;;;;-3.53;100.00;100331.01;1815136;79;21048;-69
2021/01/10 02:02:43;;;;;;;7.37;2.80;;;;;;;-3.54;100.00;100330.64;1815293;77;21055;-70
2021/01/10 02:05:16;;;;;;;6.13;4.63;;;;;;;-3.53;100.00;100325.72;1815217;78;21189;-70
2021/01/10 02:07:58;;;;;;;4.90;3.67;;;;;;;-3.53;100.00;100328.36;1815289;79;21009;-71
2021/01/10 02:10:32;;;;;;;7.60;4.15;;;;;;;-3.51;100.00;100330.94;1815364;77;20988;-70
2021/01/10 02:13:01;;;;;;;;;;;;;;;-3.48;100.00;100336.94;1861754;77;20859;-70
2021/01/10 02:15:32;;;;;;;4.90;3.20;;;;;;;-3.48;100.00;100334.29;1860946;77;20109;-71
2021/01/10 02:18:04;;;;;;;4.00;3.00;;;;;;;-3.50;100.00;100335.31;1762335;81;22240;-71
2021/01/10 02:20:33;;;;;;;7.40;3.37;;;;;;;-3.52;100.00;100339.81;1762257;81;21043;-69
2021/01/10 02:23:06;;;;;;;4.90;3.37;;;;;;;-3.54;100.00;100336.37;1762402;81;21000;-70
2021/01/10 02:25:34;;;;;;;5.80;3.67;;;;;;;-3.55;100.00;100342.13;1762393;81;20986;-71
2021/01/10 02:28:04;;;;;;;5.00;3.63;;;;;;;-3.54;100.00;100346.50;1762379;81;21055;-70
2021/01/10 02:30:33;;;;;;;5.30;3.80;;;;;;;-3.53;100.00;100341.59;1762479;81;22260;-72
2021/01/10 02:33:10;;;;;;;4.47;3.67;;;;;;;-3.52;100.00;100337.17;1762375;81;21000;-71
2021/01/10 02:35:45;;;;;;;6.17;4.10;;;;;;;-3.48;100.00;100336.94;1845276;76;22982;-71
2021/01/10 02:38:50;;;;;;;6.10;3.80;;;;;;;-3.51;100.00;100341.52;1784216;79;20928;-70
2021/01/10 02:41:46;;;;;;;3.63;3.03;;;;;;;-3.53;100.00;100336.30;1815343;78;21226;-70
2021/01/10 02:44:22;;;;;;;3.63;3.33;;;;;;;-3.55;100.00;100327.59;1815301;79;21314;-71
2021/01/10 02:47:00;;;;;;;5.03;2.60;;;;;;;-3.55;100.00;100335.99;1797667;78;21590;-71
2021/01/10 02:49:28;;;;;;;5.07;4.33;;;;;;;-3.57;100.00;100333.89;1796803;79;21127;-71
2021/01/10 02:51:55;;;;;;;7.37;4.47;;;;;;;-3.60;100.00;100329.59;1796884;79;20956;-70
2021/01/10 02:54:23;;;;;;;5.77;3.90;;;;;;;-3.59;100.00;100326.48;1796770;79;21203;-71
2021/01/10 02:57:08;;;;;;;7.30;4.73;;;;;;;-3.59;100.00;100330.00;1796898;79;20969;-70
2021/01/10 02:59:39;;;;;;;9.47;4.03;;;;;;;-3.58;100.00;100334.34;1796988;79;20957;-71
2021/01/10 03:02:14;;;;;;;9.07;5.30;;;;;;;-3.53;100.00;100331.48;1845256;76;22736;-71
2021/01/10 03:04:43;;;;;;;6.57;3.70;;;;;;;-3.55;100.00;100334.20;1810414;78;21550;-71
2021/01/10 03:07:11;;;;;;;6.10;4.50;;;;;;;-3.56;100.00;100330.30;1815313;77;21359;-71
2021/01/10 03:09:40;;;;;;;11.10;4.70;;;;;;;-3.56;100.00;100339.11;1815195;79;21585;-70
2021/01/10 03:14:49;;;;;;;9.60;4.30;;;;;;;-3.57;100.00;100333.89;1699160;82;21039;-71
2021/01/10 03:17:39;;;;;;;6.63;3.87;;;;;;;-3.59;100.00;100333.97;1698785;84;21037;-71
2021/01/10 03:20:19;;;;;;;16.57;6.67;;;;;;;-3.54;100.00;100336.37;1829430;76;27794;-71
2021/01/10 03:22:49;;;;;;;8.63;4.70;;;;;;;-3.57;100.00;100337.86;1810770;79;20972;-71
2021/01/10 03:25:22;;;;;;;6.60;4.20;;;;;;;-3.57;100.00;100345.31;1815354;78;21554;-70
2021/01/10 03:27:51;;;;;;;5.13;3.90;;;;;;;-3.59;100.00;100344.98;1815253;79;20964;-71
2021/01/10 03:30:22;;;;;;;6.90;3.90;;;;;;;-3.60;100.00;100343.28;1815386;79;20988;-70
2021/01/10 03:32:49;;;;;;;9.90;5.50;;;;;;;-3.62;100.00;100345.52;1815319;79;20995;-71
2021/01/10 03:35:17;;;;;;;3.20;2.90;;;;;;;-3.62;100.00;100347.31;1815355;79;20972;-71
2021/01/10 03:37:45;;;;;;;4.50;3.00;;;;;;;-3.63;100.00;100350.44;1784211;79;21205;-69
2021/01/10 03:40:14;;;;;;;5.50;3.20;;;;;;;-3.65;100.00;100359.35;1815257;79;20965;-71
2021/01/10 03:42:41;;;;;;;9.67;5.00;;;;;;;-3.67;100.00;100359.42;1815394;79;21557;-70
2021/01/10 03:45:13;;;;;;;6.97;3.63;;;;;;;-3.67;100.00;100362.06;1815186;78;21032;-71
2021/01/10 03:47:41;;;;;;;9.67;4.97;;;;;;;-3.68;100.00;100363.02;1815418;78;21434;-71
2021/01/10 03:50:10;;;;;;;4.13;3.27;;;;;;;-3.68;100.00;100359.52;1815342;79;21320;-71
2021/01/10 03:52:39;;;;;;;10.23;5.00;;;;;;;-3.71;100.00;100362.30;1815184;78;21052;-70
2021/01/10 03:55:09;;;;;;;5.53;3.07;;;;;;;-3.75;100.00;100369.52;1815257;79;20936;-71
2021/01/10 03:57:38;;;;;;;7.40;4.57;;;;;;;-3.79;100.00;100381.14;1815249;79;21019;-72
2021/01/10 04:00:18;;;;;;;5.83;4.17;;;;;;;-3.83;100.00;100382.22;1815148;79;21024;-70
2021/01/10 04:02:53;;;;;;;7.60;4.80;;;;;;;-3.81;100.00;100388.28;1844899;76;23065;-71
2021/01/10 04:05:21;;;;;;;5.57;3.17;;;;;;;-3.87;100.00;100380.19;1815450;79;21487;-71
2021/01/10 04:07:50;;;;;;;4.63;3.77;;;;;;;-3.90;100.00;100390.03;1815322;79;20971;-71
2021/01/10 04:10:18;;;;;;;3.57;2.93;;;;;;;-3.92;100.00;100391.89;1815239;79;21002;-71
2021/01/10 04:12:46;;;;;;;5.50;2.83;;;;;;;-3.94;100.00;100384.03;1854850;77;20984;-70
2021/01/10 04:15:15;;;;;;;4.43;3.50;;;;;;;-3.95;100.00;100389.39;1860702;76;21052;-71
2021/01/10 04:17:42;;;;;;;5.47;3.77;;;;;;;-4.00;100.00;100383.02;1860847;77;21013;-70
2021/01/10 04:20:12;;;;;;;6.27;3.20;;;;;;;-4.02;100.00;100386.16;1860833;77;21399;-70
2021/01/10 04:22:40;;;;;;;7.17;3.97;;;;;;;-4.05;100.00;100394.25;1860923;77;21456;-71
2021/01/10 04:25:11;;;;;;;11.93;5.17;;;;;;;-4.06;100.00;100395.16;1860912;77;20972;-71
2021/01/10 04:27:39;;;;;;;8.53;5.23;;;;;;;-4.07;100.00;100399.59;1860779;76;20989;-69
2021/01/10 04:30:09;;;;;;;8.43;4.40;;;;;;;-4.06;100.00;100393.84;1860807;77;22636;-71
2021/01/10 04:32:37;;;;;;;5.67;4.17;;;;;;;-4.06;100.00;100399.97;1860938;77;22212;-71
2021/01/10 04:35:06;;;;;;;5.07;3.73;;;;;;;-4.06;100.00;100401.29;1860665;76;21039;-71
2021/01/10 04:37:34;;;;;;;3.47;3.00;;;;;;;-4.06;100.00;100399.97;1860927;77;20914;-70
2021/01/10 04:40:04;;;;;;;7.13;4.67;;;;;;;-4.05;100.00;100403.49;1860751;77;20996;-71
2021/01/10 04:42:32;;;;;;;7.57;4.60;;;;;;;-4.06;100.00;100407.89;1860617;76;21571;-72
2021/01/10 04:45:02;;;;;;;6.70;4.37;;;;;;;-4.05;100.00;100408.77;1858404;77;22262;-71
2021/01/10 04:47:30;;;;;;;7.67;4.73;;;;;;;-4.05;100.00;100412.73;1815158;79;21063;-71
2021/01/10 04:49:58;;;;;;;7.67;3.70;;;;;;;-4.04;100.00;100407.83;1815146;77;20977;-71
2021/01/10 04:52:26;;;;;;;8.10;3.57;;;;;;;-4.01;100.00;100421.75;1815195;79;20996;-71
2021/01/10 04:54:54;;;;;;;4.07;2.70;;;;;;;-3.99;100.00;100416.87;1784244;79;20988;-71
2021/01/10 04:57:22;;;;;;;4.20;3.33;;;;;;;-3.98;100.00;100423.86;1758930;79;21374;-70
2021/01/10 04:59:50;;;;;;;8.37;4.27;;;;;;;-3.98;100.00;100422.09;1815261;77;20929;-71
2021/01/10 05:02:25;;;;;;;6.90;4.87;;;;;;;-3.98;100.00;100420.78;1815110;77;20941;-71
2021/01/10 05:04:54;;;;;;;6.77;3.90;;;;;;;-3.96;100.00;100429.48;1815263;79;21621;-71
2021/01/10 05:07:22;;;;;;;4.57;2.87;;;;;;;-3.97;100.00;100423.80;1815283;79;20929;-71
2021/01/10 05:09:50;;;;;;;6.57;3.93;;;;;;;-3.97;100.00;100427.76;1815264;79;21188;-70
2021/01/10 05:12:18;;;;;;;5.30;3.70;;;;;;;-3.97;100.00;100426.91;1802723;78;21010;-71
2021/01/10 05:14:46;;;;;;;9.37;4.03;;;;;;;-3.98;100.00;100427.83;1796481;79;20996;-71
2021/01/10 05:17:21;;;;;;;8.80;5.43;;;;;;;-4.01;100.00;100429.68;1796326;79;20940;-72
2021/01/10 05:19:49;;;;;;;7.27;4.07;;;;;;;-4.02;100.00;100433.27;1796650;79;20948;-70
2021/01/10 05:22:20;;;;;;;7.40;3.63;;;;;;;-4.02;100.00;100433.27;1823039;78;21484;-71
2021/01/10 05:24:48;;;;;;;10.30;4.37;;;;;;;-4.01;100.00;100431.47;1779496;78;20994;-71
2021/01/10 05:27:17;;;;;;;6.90;4.30;;;;;;;-4.01;100.00;100429.68;1824786;77;21048;-72
2021/01/10 05:29:46;;;;;;;5.57;3.13;;;;;;;-4.01;100.00;100430.16;1824767;78;21048;-71
2021/01/10 05:32:14;;;;;;;6.03;3.70;;;;;;;-4.00;100.00;100439.80;1824732;78;20927;-71
2021/01/10 05:34:42;;;;;;;7.13;3.73;;;;;;;-4.02;100.00;100444.27;1824735;78;21196;-71
2021/01/10 05:37:15;;;;;;;5.27;4.30;;;;;;;-4.01;100.00;100443.36;1817493;78;20969;-71
2021/01/10 05:39:47;;;;;;;7.17;3.47;;;;;;;-4.02;100.00;100454.84;1730039;82;21155;-73
2021/01/10 05:42:15;;;;;;;6.57;3.93;;;;;;;-4.03;100.00;100449.19;1729909;83;21055;-72
2021/01/10 05:44:47;;;;;;;4.80;3.47;;;;;;;-4.04;100.00;100448.33;1729925;83;21000;-71
2021/01/10 05:47:18;;;;;;;3.73;3.13;;;;;;;-4.03;100.00;100460.59;1731492;82;22204;-71
2021/01/10 05:49:54;;;;;;;6.00;3.83;;;;;;;-4.01;100.00;100461.85;1731499;82;20981;-71
2021/01/10 05:52:22;;;;;;;13.73;6.13;;;;;;;-4.01;100.00;100461.38;1731565;82;21290;-71
2021/01/10 05:54:58;;;;;;;7.70;4.40;;;;;;;-4.00;100.00;100463.58;1731540;82;20925;-70
2021/01/10 05:57:28;;;;;;;7.40;4.40;;;;;;;-3.99;100.00;100466.59;1731475;82;21016;-71
2021/01/10 05:59:56;;;;;;;3.90;2.63;;;;;;;-3.98;100.00;100474.94;1731598;82;22269;-71
2021/01/10 06:02:35;;;;;;;6.50;3.43;;;;;;;-3.97;100.00;100473.14;1731394;82;21083;-71
2021/01/10 06:05:18;;;;;;;5.17;2.97;;;;;;;-3.97;100.00;100476.63;1731532;82;21048;-70
2021/01/10 06:07:47;;;;;;;2.83;2.63;;;;;;;-3.94;100.00;100483.58;1705745;82;21048;-71
2021/01/10 06:10:29;;;;;;;6.33;4.10;;;;;;;-3.93;100.00;100489.23;1731550;82;21071;-70
2021/01/10 06:13:02;;;;;;;6.47;2.40;;;;;;;-3.91;100.00;100485.63;1730075;82;20957;-70
2021/01/10 06:15:35;;;;;;;7.43;3.47;;;;;;;-3.89;100.00;100492.17;1729933;83;20969;-70
2021/01/10 06:18:10;;;;;;;7.00;4.97;;;;;;;-3.82;100.00;100494.92;1845264;76;22514;-70
2021/01/10 06:20:39;;;;;;;4.23;3.40;;;;;;;-3.84;100.00;100500.75;1784478;79;20995;-72
2021/01/10 06:23:08;;;;;;;9.83;5.20;;;;;;;-3.81;100.00;100503.23;1815327;79;21612;-71
2021/01/10 06:25:38;;;;;;;7.17;4.30;;;;;;;-3.79;100.00;100503.17;1815285;78;20996;-70
2021/01/10 06:28:17;;;;;;;5.27;4.03;;;;;;;-3.76;100.00;100501.72;1815220;78;20992;-70
2021/01/10 06:30:55;;;;;;;5.20;4.10;;;;;;;-3.72;100.00;100505.49;1815138;79;20965;-71
2021/01/10 06:33:32;;;;;;;6.50;3.77;;;;;;;-3.68;100.00;100511.02;1815326;79;20972;-70
2021/01/10 06:36:06;;;;;;;7.83;5.30;;;;;;;-3.65;100.00;100507.37;1815184;79;21362;-70
2021/01/10 06:38:36;;;;;;;4.25;2.65;;;;;;;-3.61;100.00;100510.30;1815355;78;20980;-70
2021/01/10 06:41:32;;;;;;;36.20;19.00;;;;;;;-3.55;100.00;100510.47;1815203;79;21030;-71
2021/01/10 06:44:03;;;;;;;15.30;7.90;;;;;;;-3.52;100.00;100505.91;1815193;79;20988;-70
2021/01/10 06:46:31;;;;;;;6.37;4.27;;;;;;;-3.52;100.00;100503.26;1815249;78;21542;-71
2021/01/10 06:49:06;;;;;;;15.77;8.83;;;;;;;-3.50;100.00;100508.48;1815228;79;21287;-71
2021/01/10 06:51:34;;;;;;;8.00;5.07;;;;;;;-3.48;100.00;100503.50;1815163;79;20976;-70
2021/01/10 06:54:04;;;;;;;11.27;6.60;;;;;;;-3.44;100.00;100506.86;1749784;80;21615;-71
2021/01/10 06:56:32;;;;;;;8.70;5.43;;;;;;;-3.43;100.00;100509.91;1771285;81;21343;-70
2021/01/10 06:59:24;;;;;;;7.80;5.00;;;;;;;-3.41;100.00;100511.17;1771389;81;20945;-71
2021/01/10 07:01:57;;;;;;;4.73;3.90;;;;;;;-3.38;100.00;100514.97;1733757;82;21414;-71
2021/01/10 07:04:37;;;;;;;7.90;4.80;;;;;;;-3.29;100.00;100509.28;1733803;82;21133;-70
2021/01/10 07:07:05;;;;;;;9.63;5.67;;;;;;;-3.20;100.00;100511.48;1733893;82;21052;-70
2021/01/10 07:09:54;;;;;;;10.47;5.23;;;;;;;-3.14;100.00;100509.86;1733836;82;21080;-70
2021/01/10 07:12:22;;;;;;;6.37;4.17;;;;;;;-3.09;100.00;100513.16;1733939;82;21511;-70
2021/01/10 07:14:51;;;;;;;7.67;4.63;;;;;;;-3.01;100.00;100510.17;1728599;83;21378;-70
2021/01/10 07:17:19;;;;;;;9.80;5.10;;;;;;;-2.94;100.00;100512.03;1738289;81;21017;-70
2021/01/10 07:19:49;;;;;;;7.97;4.47;;;;;;;-2.85;100.00;100518.23;1747582;82;21010;-71
2021/01/10 07:22:30;;;;;;;7.40;4.07;;;;;;;-2.74;100.00;100519.03;1747585;82;21561;-72
2021/01/10 07:25:20;;;;;;;8.40;4.37;;;;;;;-2.63;100.00;100522.00;1747387;82;21053;-71
2021/01/10 07:27:48;;;;;;;13.40;7.07;;;;;;;-2.50;100.00;100520.92;1726950;82;21224;-71
2021/01/10 07:30:24;;;;;;;11.80;6.10;;;;;;;-2.39;100.00;100525.23;1746228;82;21697;-69
2021/01/10 07:32:52;;;;;;;8.27;5.50;;;;;;;-2.31;100.00;100527.02;1747031;82;21073;-71
2021/01/10 07:35:20;;;;;;;9.87;6.00;;;;;;;-2.19;100.00;100523.38;1746496;82;21081;-70
2021/01/10 07:37:47;;;;;;;6.37;4.10;;;;;;;-2.07;100.00;100521.87;1747076;82;21011;-71
2021/01/10 07:40:23;;;;;;;11.47;6.00;;;;;;;-1.96;100.00;100513.77;1746958;82;21380;-71
2021/01/10 07:43:01;;;;;;;8.50;5.40;;;;;;;-1.82;100.00;100524.14;1744893;82;21167;-71
2021/01/10 07:45:38;;;;;;;8.70;5.63;;;;;;;-1.72;100.00;100524.90;1709501;83;21124;-71
2021/01/10 07:48:06;;;;;;;7.97;4.97;;;;;;;-1.66;100.00;100518.89;1697515;84;21742;-71
2021/01/10 07:50:35;;;;;;;11.57;6.47;;;;;;;-1.55;100.00;100520.48;1715753;83;21057;-70
2021/01/10 07:53:03;;;;;;;13.43;7.10;;;;;;;-1.45;100.00;100511.55;1685801;83;21229;-69
2021/01/10 07:55:32;;;;;;;12.70;7.60;;;;;;;-1.32;100.00;100507.31;1717007;82;20968;-70
2021/01/10 07:58:06;;;;;;;11.17;6.50;;;;;;;-1.24;100.00;100512.19;1727492;81;21001;-71
2021/01/10 08:00:35;;;;;;;19.03;10.57;;;;;;;-1.16;100.00;100506.00;1759421;81;21076;-71
2021/01/10 08:03:07;;;;;;;14.13;7.93;;;;;;;-0.99;100.00;100509.91;1759527;81;21028;-71
2021/01/10 08:05:41;;;;;;;19.27;8.20;;;;;;;-0.82;100.00;100506.28;1759550;81;21386;-71
2021/01/10 08:08:17;;;;;;;16.40;7.77;;;;;;;-0.66;100.00;100506.27;1694413;84;21065;-71
2021/01/10 08:10:54;;;;;;;19.97;8.73;;;;;;;-0.53;100.00;100509.09;1694476;84;21110;-70
2021/01/10 08:13:31;;;;;;;16.83;9.30;;;;;;;-0.38;100.00;100504.68;1693233;84;20986;-70
2021/01/10 08:16:11;;;;;;;19.97;8.13;;;;;;;-0.31;100.00;100503.38;1692857;84;21029;-71
2021/01/10 08:18:42;;;;;;;31.27;14.10;;;;;;;-0.27;100.00;100498.73;1689828;84;21438;-70
2021/01/10 08:21:17;;;;;;;21.37;10.47;;;;;;;-0.21;100.00;100495.73;1693008;84;21061;-70
2021/01/10 08:23:47;;;;;;;23.67;10.20;;;;;;;-0.08;100.00;100496.70;1693157;84;21025;-72
2021/01/10 08:26:18;;;;;;;18.03;8.80;;;;;;;0.14;100.00;100489.62;1693123;84;21021;-70
2021/01/10 08:28:53;;;;;;;20.17;8.23;;;;;;;0.37;100.00;100495.31;1693167;84;21100;-70
2021/01/10 08:31:23;;;;;;;18.23;9.10;;;;;;;0.56;100.00;100487.91;1693192;84;21222;-70
2021/01/10 08:34:04;;;;;;;15.20;6.93;;;;;;;0.73;100.00;100486.01;1693195;84;21557;-70
2021/01/10 08:36:32;;;;;;;18.17;8.43;;;;;;;0.79;100.00;100484.27;1693039;84;21224;-70
2021/01/10 08:39:06;;;;;;;17.33;7.80;;;;;;;0.95;100.00;100484.15;1693227;84;21123;-69
2021/01/10 08:41:44;;;;;;;16.77;7.97;;;;;;;1.10;100.00;100477.84;1693303;84;21624;-70
2021/01/10 08:44:18;;;;;;;16.77;7.77;;;;;;;1.21;100.00;100474.96;1693025;84;21158;-69
2021/01/10 08:46:49;;;;;;;19.20;8.10;;;;;;;1.23;100.00;100478.38;1694374;83;21540;-70
2021/01/10 08:52:04;;;;;;;17.03;7.93;;;;;;;1.34;100.00;100471.85;1845256;76;26577;-69
2021/01/10 08:54:31;;;;;;;13.77;6.77;;;;;;;1.30;100.00;100474.35;1815329;78;20972;-70
2021/01/10 08:56:59;;;;;;;20.17;8.77;;;;;;;1.29;100.00;100468.17;1811420;79;21359;-68
2021/01/10 08:59:37;;;;;;;17.87;8.43;;;;;;;1.28;100.00;100471.78;1752985;80;21011;-69
2021/01/10 09:02:07;;;;;;;19.70;8.10;;;;;;;1.28;100.00;100472.27;1742119;80;21611;-69
2021/01/10 09:04:42;;;;;;;18.43;8.67;;;;;;;1.36;100.00;100471.27;1769234;80;21139;-71
2021/01/10 09:07:19;;;;;;;19.27;7.30;;;;;;;1.41;100.00;100473.64;1740641;82;21028;-70
2021/01/10 09:10:00;;;;;;;16.87;7.10;;;;;;;1.36;100.00;100467.27;1740636;82;21239;-69
2021/01/10 09:12:47;;;;;;;15.67;7.43;;;;;;;1.41;100.00;100466.98;1763070;81;21040;-70
2021/01/10 09:15:19;;;;;;;18.57;7.37;;;;;;;1.51;100.00;100467.59;1739997;82;21000;-68
2021/01/10 09:18:13;;;;;;;18.83;8.03;;;;;;;1.58;100.00;100460.53;1735396;82;21056;-70
2021/01/10 09:20:59;;;;;;;22.67;9.37;;;;;;;1.57;100.00;100456.15;1684282;83;21065;-69
2021/01/10 09:23:33;;;;;;;19.27;7.70;;;;;;;1.66;100.00;100456.36;1850461;76;26843;-68
2021/01/10 09:26:01;;;;;;;20.93;8.53;;;;;;;1.66;100.00;100451.52;1826826;77;21001;-69
2021/01/10 09:28:33;;;;;;;21.53;9.10;;;;;;;1.70;100.00;100453.05;1821577;78;21200;-69
2021/01/10 09:31:01;;;;;;;22.93;8.67;;;;;;;1.68;100.00;100455.81;1821526;78;20992;-71
2021/01/10 09:33:31;;;;;;;15.97;6.17;;;;;;;1.64;100.00;100450.28;1821509;78;20949;-70
2021/01/10 09:36:01;;;;;;;14.20;6.47;;;;;;;1.68;100.00;100449.60;1822480;76;20925;-68
2021/01/10 09:38:31;;;;;;;18.87;7.13;;;;;;;1.76;100.00;100445.95;1821589;78;20997;-69
2021/01/10 09:41:14;;;;;;;18.77;8.37;;;;;;;1.86;100.00;100439.03;1821518;78;21436;-70
2021/01/10 09:43:47;;;;;;;14.63;6.40;;;;;;;1.92;100.00;100434.23;1821600;78;20949;-69
2021/01/10 09:46:27;;;;;;;;;;;;;;;2.02;100.00;100433.95;1824244;76;21007;-69
2021/01/10 09:49:07;;;;;;;17.03;6.93;;;;;;;2.18;100.00;100439.06;1821538;78;20545;-69
2021/01/10 09:51:43;;;;;;;12.87;6.27;;;;;;;2.18;100.00;100433.27;1821541;78;21006;-69
2021/01/10 09:54:24;;;;;;;9.90;5.67;;;;;;;2.03;100.00;100429.84;1821663;78;22524;-69
2021/01/10 09:57:00;;;;;;;16.93;7.47;;;;;;;1.93;100.00;100430.13;1821257;78;21003;-68
2021/01/10 09:59:55;;;;;;;13.83;6.83;;;;;;;1.93;100.00;100427.92;1820858;78;21039;-69
2021/01/10 10:02:36;;;;;;;15.50;6.43;;;;;;;1.98;100.00;100427.97;1820620;78;21007;-70
2021/01/10 10:05:25;;;;;;;12.60;6.00;;;;;;;2.05;100.00;100427.95;1821162;78;20920;-69
2021/01/10 10:08:03;;;;;;;14.47;6.90;;;;;;;2.00;100.00;100427.41;1821224;78;21381;-69
2021/01/10 10:10:33;;;;;;;15.47;5.93;;;;;;;2.04;100.00;100426.23;1821127;78;21039;-69
2021/01/10 10:13:05;;;;;;;13.80;5.93;;;;;;;2.04;100.00;100430.23;1821409;78;20996;-69
2021/01/10 10:18:28;;;;;;;13.80;6.43;;;;;;;2.03;100.00;100425.84;1696678;83;21202;-68
2021/01/10 10:20:55;;;;;;;12.97;6.00;;;;;;;2.06;100.00;100427.46;1691487;84;21384;-69
2021/01/10 10:23:23;;;;;;;16.93;7.07;;;;;;;2.02;100.00;100428.16;1693749;83;20984;-69
2021/01/10 10:25:52;;;;;;;14.13;6.07;;;;;;;1.95;100.00;100426.00;1691506;84;21185;-68
2021/01/10 10:28:22;;;;;;;12.30;5.60;;;;;;;1.94;100.00;100420.31;1693923;84;20996;-69
2021/01/10 10:30:51;;;;;;;12.67;5.90;;;;;;;1.94;100.00;100425.64;1691505;84;20925;-69
2021/01/10 10:33:19;;;;;;;15.90;7.63;;;;;;;1.95;100.00;100427.33;1693844;84;21324;-70
2021/01/10 10:35:47;;;;;;;11.17;6.03;;;;;;;1.99;100.00;100430.19;1690883;84;21046;-69
2021/01/10 10:38:15;;;;;;;15.23;5.93;;;;;;;2.03;100.00;100434.33;1693426;84;21196;-70
2021/01/10 10:40:43;;;;;;;16.60;7.10;;;;;;;2.00;100.00;100433.20;1690906;84;20957;-70
2021/01/10 10:43:11;;;;;;;14.33;6.63;;;;;;;1.99;100.00;100436.85;1693574;84;20976;-70
2021/01/10 10:45:39;;;;;;;16.57;6.60;;;;;;;1.92;100.00;100431.08;1664400;85;21382;-69
2021/01/10 10:48:08;;;;;;;13.00;5.80;;;;;;;1.82;100.00;100435.33;1698508;84;21118;-69
2021/01/10 10:50:36;;;;;;;12.97;6.37;;;;;;;1.70;100.00;100423.72;1698531;84;21083;-69
2021/01/10 10:53:05;;;;;;;15.17;6.73;;;;;;;1.58;100.00;100425.88;1698501;83;21936;-70
2021/01/10 10:55:34;;;;;;;13.43;6.03;;;;;;;1.64;100.00;100426.30;1698538;84;21056;-70
2021/01/10 10:58:03;;;;;;;16.30;6.60;;;;;;;1.83;100.00;100428.56;1698455;84;20989;-68
2021/01/10 11:00:35;;;;;;;12.83;6.07;;;;;;;2.07;100.00;100427.36;1698459;84;21027;-69
2021/01/10 11:03:05;;;;;;;14.83;6.67;;;;;;;2.18;100.00;100422.60;1694123;83;20953;-69
2021/01/10 11:05:33;;;;;;;15.03;6.77;;;;;;;2.17;100.00;100428.89;1690824;84;21037;-69
2021/01/10 11:08:02;;;;;;;14.37;7.00;;;;;;;2.04;100.00;100422.72;1693379;84;21220;-69
2021/01/10 11:10:30;;;;;;;12.43;5.47;;;;;;;1.96;100.00;100416.56;1691011;84;21804;-69
2021/01/10 11:12:58;;;;;;;16.00;6.10;;;;;;;1.94;100.00;100425.16;1720758;83;21063;-67
2021/01/10 11:15:27;;;;;;;16.10;6.83;;;;;;;1.85;100.00;100425.80;1740800;82;20956;-68
2021/01/10 11:17:55;;;;;;;18.17;7.47;;;;;;;1.73;100.00;100430.15;1781858;80;20977;-69
2021/01/10 11:20:25;;;;;;;16.17;6.40;;;;;;;1.61;100.00;100433.65;1820687;78;20997;-69
2021/01/10 11:22:55;;;;;;;13.63;7.20;;;;;;;1.47;100.00;100426.13;1816175;78;21204;-69
2021/01/10 11:25:23;;;;;;;10.53;5.93;;;;;;;1.38;100.00;100435.20;1820859;78;21005;-69
2021/01/10 11:27:51;;;;;;;10.20;5.23;;;;;;;1.32;100.00;100431.14;1820531;78;20992;-68
2021/01/10 11:30:20;;;;;;;13.50;6.37;;;;;;;1.26;100.00;100431.56;1820883;78;20973;-69
2021/01/10 11:32:48;;;;;;;11.03;5.33;;;;;;;1.19;100.00;100436.89;1820880;78;21095;-69
2021/01/10 11:35:17;;;;;;;14.87;6.57;;;;;;;1.23;100.00;100438.41;1820833;78;21194;-69
2021/01/10 11:37:45;;;;;;;15.17;5.77;;;;;;;1.26;100.00;100439.55;1820858;78;21045;-69
2021/01/10 11:40:15;;;;;;;14.23;6.60;;;;;;;1.29;100.00;100443.32;1820878;78;20993;-69
2021/01/10 11:42:43;;;;;;;12.07;5.97;;;;;;;1.26;100.00;100443.06;1820897;78;21579;-69
2021/01/10 11:45:12;;;;;;;12.40;6.27;;;;;;;1.16;100.00;100448.61;1824845;77;21013;-69